createdAt,value
2022-12-09T00:01:59.319Z,15.57
2022-12-09T00:04:29.888Z,15.80
2022-12-09T00:07:00.490Z,17.55
2022-12-09T00:09:30.818Z,15.73
2022-12-09T00:12:01.009Z,16.73
2022-12-09T00:14:31.953Z,14.90
2022-12-09T00:17:05.484Z,16.33
2022-12-09T00:19:35.904Z,17.13
2022-12-09T00:22:06.190Z,15.60
2022-12-09T00:24:36.490Z,19.33
2022-12-09T00:27:07.385Z,16.07
2022-12-09T00:29:38.027Z,15.77
2022-12-09T00:32:11.349Z,17.35
2022-12-09T00:34:42.428Z,20.02
2022-12-09T00:37:12.821Z,17.88
2022-12-09T00:39:43.966Z,18.23
2022-12-09T00:44:44.847Z,18.00
2022-12-09T00:47:18.098Z,16.33
2022-12-09T00:49:48.936Z,17.58
2022-12-09T00:52:19.233Z,19.33
2022-12-09T00:54:50.071Z,17.77
2022-12-09T00:57:20.819Z,17.50
2022-12-09T00:59:51.305Z,17.42
2022-12-09T01:02:24.608Z,19.15
2022-12-09T01:04:55.205Z,19.65
2022-12-09T01:07:25.689Z,19.35
2022-12-09T01:09:56.325Z,20.00
2022-12-09T01:12:26.773Z,18.20
2022-12-09T01:14:57.278Z,18.40
2022-12-09T01:17:30.527Z,18.08
2022-12-09T01:20:00.879Z,18.58
2022-12-09T01:22:32.241Z,18.97
2022-12-09T01:25:03.071Z,18.58
2022-12-09T01:27:34.425Z,18.52
2022-12-09T01:30:05.282Z,19.63
2022-12-09T01:35:10.018Z,17.10
2022-12-09T01:37:41.077Z,18.73
2022-12-09T01:40:20.820Z,17.88
2022-12-09T01:42:53.508Z,18.02
2022-12-09T01:45:45.227Z,18.70
2022-12-09T01:48:20.948Z,20.67
2022-12-09T01:50:56.898Z,17.38
2022-12-09T01:53:29.761Z,20.10
2022-12-09T01:56:04.332Z,20.92
2022-12-09T01:58:35.700Z,19.08
2022-12-09T02:01:06.147Z,19.58
2022-12-09T02:06:11.436Z,16.83
2022-12-09T02:08:43.207Z,17.45
2022-12-09T02:11:24.274Z,17.77
2022-12-09T02:14:03.369Z,17.92
2022-12-09T02:16:40.136Z,18.33
2022-12-09T02:19:29.098Z,18.38
2022-12-09T02:22:02.423Z,17.58
2022-12-09T02:24:45.584Z,18.55
2022-12-09T02:27:22.982Z,16.05
2022-12-09T02:30:09.539Z,17.00
2022-12-09T02:33:12.063Z,16.13
2022-12-09T02:35:51.106Z,18.85
2022-12-09T02:38:26.813Z,17.15
2022-12-09T02:41:03.470Z,18.35
2022-12-09T02:43:42.088Z,18.60
2022-12-09T02:46:18.262Z,17.40
2022-12-09T02:48:56.074Z,17.10
2022-12-09T02:51:34.600Z,15.23
2022-12-09T02:54:11.494Z,17.38
2022-12-09T02:56:46.757Z,15.35
2022-12-09T02:59:17.647Z,15.93
2022-12-09T03:02:00.142Z,18.67
2022-12-09T03:04:33.063Z,16.15
2022-12-09T03:07:18.191Z,18.02
2022-12-09T03:09:51.188Z,16.40
2022-12-09T03:12:23.601Z,19.20
2022-12-09T03:14:56.259Z,14.73
2022-12-09T03:17:34.161Z,18.63
2022-12-09T03:20:11.390Z,17.42
2022-12-09T03:22:49.197Z,14.63
2022-12-09T03:25:25.616Z,16.02
2022-12-09T03:30:39.151Z,14.85
2022-12-09T03:33:11.597Z,14.98
2022-12-09T03:35:46.340Z,17.23
2022-12-09T03:38:22.815Z,17.30
2022-12-09T03:40:58.138Z,15.43
2022-12-09T03:43:33.537Z,16.08
2022-12-09T03:46:04.593Z,14.32
2022-12-09T03:48:35.891Z,14.52
2022-12-09T03:53:49.236Z,14.27
2022-12-09T03:56:25.206Z,15.20
2022-12-09T03:58:58.470Z,15.35
2022-12-09T04:01:31.197Z,15.25
2022-12-09T04:04:01.692Z,15.20
2022-12-09T04:06:32.252Z,15.35
2022-12-09T04:09:05.950Z,14.80
2022-12-09T04:11:37.335Z,15.23
2022-12-09T04:16:46.107Z,18.83
2022-12-09T04:19:16.732Z,16.77
2022-12-09T04:21:47.285Z,15.48
2022-12-09T04:24:20.351Z,15.02
2022-12-09T04:26:50.806Z,14.48
2022-12-09T04:29:21.235Z,12.98
2022-12-09T04:31:51.508Z,14.10
2022-12-09T04:34:22.050Z,14.00
2022-12-09T04:36:52.991Z,15.75
2022-12-09T04:39:26.584Z,14.55
2022-12-09T04:41:56.891Z,21.42
2022-12-09T04:44:27.375Z,14.73
2022-12-09T04:46:57.862Z,16.75
2022-12-09T04:49:28.312Z,17.00
2022-12-09T04:51:58.824Z,15.43
2022-12-09T04:54:33.155Z,17.42
2022-12-09T04:57:03.815Z,14.90
2022-12-09T04:59:34.896Z,16.83
2022-12-09T05:02:05.669Z,15.88
2022-12-09T05:04:36.728Z,15.95
2022-12-09T05:07:07.744Z,13.85
2022-12-09T05:09:41.156Z,15.63
2022-12-09T05:12:12.029Z,14.02
2022-12-09T05:14:42.751Z,13.43
2022-12-09T05:17:13.176Z,16.02
2022-12-09T05:19:44.788Z,14.38
2022-12-09T05:22:15.473Z,14.52
2022-12-09T05:24:49.186Z,13.57
2022-12-09T05:27:19.728Z,13.40
2022-12-09T05:29:50.543Z,15.75
2022-12-09T05:32:21.657Z,14.70
2022-12-09T05:37:22.944Z,13.90
2022-12-09T05:39:55.980Z,15.15
2022-12-09T05:42:26.414Z,15.20
2022-12-09T05:44:57.005Z,14.50
2022-12-09T05:47:27.789Z,15.43
2022-12-09T05:50:01.753Z,16.35
2022-12-09T05:52:39.140Z,15.45
2022-12-09T05:55:14.192Z,16.20
2022-12-09T05:57:44.804Z,15.57
2022-12-09T06:00:17.667Z,16.95
2022-12-09T06:02:48.670Z,15.30
2022-12-09T06:05:19.443Z,17.80
2022-12-09T06:07:50.611Z,18.25
2022-12-09T06:10:24.076Z,15.93
2022-12-09T06:12:57.781Z,15.90
2022-12-09T06:15:33.142Z,15.38
2022-12-09T06:18:04.861Z,18.45
2022-12-09T06:23:05.994Z,14.48
2022-12-09T06:25:39.863Z,15.50
2022-12-09T06:28:10.550Z,15.13
2022-12-09T06:30:41.371Z,18.83
2022-12-09T06:33:29.429Z,14.73
2022-12-09T06:36:04.716Z,15.93
2022-12-09T06:38:35.258Z,16.10
2022-12-09T06:41:12.361Z,16.33
2022-12-09T06:43:44.027Z,15.25
2022-12-09T06:46:16.677Z,15.88
2022-12-09T06:48:48.101Z,15.05
2022-12-09T06:51:19.684Z,14.30
2022-12-09T06:53:50.767Z,16.23
2022-12-09T06:58:54.827Z,18.50
2022-12-09T07:01:27.703Z,12.60
2022-12-09T07:04:00.128Z,16.13
2022-12-09T07:06:33.735Z,14.25
2022-12-09T07:09:07.274Z,14.85
2022-12-09T07:11:42.606Z,13.13
2022-12-09T07:14:14.108Z,13.88
2022-12-09T07:16:45.594Z,14.48
2022-12-09T07:19:20.636Z,12.98
2022-12-09T07:21:52.431Z,14.15
2022-12-09T07:24:23.212Z,15.63
2022-12-09T07:26:56.307Z,16.00
2022-12-09T07:29:26.623Z,14.43
2022-12-09T07:31:57.819Z,14.15
2022-12-09T07:34:28.519Z,15.73
2022-12-09T07:36:59.818Z,17.20
2022-12-09T07:39:30.543Z,15.20
2022-12-09T07:42:03.843Z,16.55
2022-12-09T07:44:35.025Z,13.15
2022-12-09T07:47:05.626Z,14.52
2022-12-09T07:49:36.542Z,13.38
2022-12-09T07:52:07.721Z,14.15
2022-12-09T07:54:38.362Z,12.57
2022-12-09T07:57:11.411Z,11.88
2022-12-09T07:59:42.177Z,13.02
2022-12-09T08:02:13.059Z,13.93
2022-12-09T08:04:44.094Z,14.13
2022-12-09T08:07:14.712Z,13.57
2022-12-09T08:09:45.652Z,12.07
2022-12-09T08:12:19.026Z,13.50
2022-12-09T08:14:49.471Z,13.52
2022-12-09T08:17:21.387Z,13.13
2022-12-09T08:19:52.432Z,14.57
2022-12-09T08:22:23.659Z,12.68
2022-12-09T08:24:54.512Z,11.70
2022-12-09T08:27:27.606Z,13.18
2022-12-09T08:29:58.696Z,12.88
2022-12-09T08:32:29.938Z,13.20
2022-12-09T08:35:00.865Z,14.25
2022-12-09T08:37:31.603Z,11.35
2022-12-09T08:40:02.191Z,12.95
2022-12-09T08:42:35.955Z,12.93
2022-12-09T08:45:07.933Z,13.52
2022-12-09T08:47:38.764Z,12.05
2022-12-09T08:50:11.780Z,12.05
2022-12-09T08:52:42.998Z,11.85
2022-12-09T08:55:13.968Z,12.65
2022-12-09T08:57:47.082Z,11.23
2022-12-09T09:00:19.685Z,12.43
2022-12-09T09:02:50.146Z,11.10
2022-12-09T09:05:21.033Z,9.15
2022-12-09T09:07:52.303Z,10.02
2022-12-09T09:12:56.210Z,9.63
2022-12-09T09:15:27.029Z,12.18
2022-12-09T09:17:58.114Z,9.07
2022-12-09T09:23:03.032Z,8.93
2022-12-09T09:25:35.139Z,11.13
2022-12-09T09:28:08.714Z,10.68
2022-12-09T09:30:40.394Z,14.35
2022-12-09T09:33:12.248Z,10.27
2022-12-09T09:35:43.042Z,11.90
2022-12-09T09:38:13.885Z,10.55
2022-12-09T09:40:45.134Z,12.68
2022-12-09T09:43:23.077Z,13.48
2022-12-09T09:45:55.222Z,10.75
2022-12-09T09:48:30.372Z,13.10
2022-12-09T09:51:06.757Z,10.60
2022-12-09T09:53:40.477Z,12.07
2022-12-09T09:56:30.004Z,10.68
2022-12-09T09:59:19.543Z,11.38
2022-12-09T10:02:05.778Z,10.50
2022-12-09T10:04:52.969Z,11.15
2022-12-09T10:07:32.318Z,11.82
2022-12-09T10:10:19.183Z,11.35
2022-12-09T10:13:14.289Z,12.23
2022-12-09T10:16:12.269Z,10.55
2022-12-09T10:18:52.783Z,9.55
2022-12-09T10:21:25.145Z,11.20
2022-12-09T10:23:57.853Z,11.18
2022-12-09T10:26:32.693Z,10.77
2022-12-09T10:29:16.811Z,11.63
2022-12-09T10:31:49.996Z,10.57
2022-12-09T10:34:20.499Z,8.98
2022-12-09T10:36:51.950Z,11.13
2022-12-09T10:39:24.870Z,10.25
2022-12-09T10:42:24.173Z,10.82
2022-12-09T10:45:09.385Z,10.93
2022-12-09T10:47:43.103Z,12.25
2022-12-09T10:50:34.302Z,8.35
2022-12-09T10:53:10.685Z,11.05
2022-12-09T10:55:44.848Z,14.02
2022-12-09T10:58:21.119Z,13.60
2022-12-09T11:01:12.099Z,11.05
2022-12-09T11:06:28.612Z,12.82
2022-12-09T11:09:02.196Z,11.35
2022-12-09T11:11:46.369Z,12.05
2022-12-09T11:14:27.236Z,13.15
2022-12-09T11:17:01.222Z,11.95
2022-12-09T11:19:40.735Z,12.55
2022-12-09T11:22:33.745Z,13.13
2022-12-09T11:25:24.956Z,10.73
2022-12-09T11:27:59.086Z,18.27
2022-12-09T11:30:33.413Z,11.95
2022-12-09T11:33:11.516Z,11.80
2022-12-09T11:35:59.117Z,12.60
2022-12-09T11:38:40.620Z,12.15
2022-12-09T11:41:43.269Z,11.18
2022-12-09T11:44:27.948Z,11.80
2022-12-09T11:47:03.494Z,12.05
2022-12-09T11:49:39.782Z,14.05
2022-12-09T11:52:30.191Z,13.88
2022-12-09T11:55:15.469Z,13.80
2022-12-09T11:57:52.427Z,12.80
2022-12-09T12:00:27.500Z,12.82
2022-12-09T12:03:07.483Z,11.50
2022-12-09T12:05:42.228Z,13.00
2022-12-09T12:08:27.070Z,14.80
2022-12-09T12:11:02.978Z,13.80
2022-12-09T12:13:41.983Z,12.38
2022-12-09T12:16:16.349Z,14.00
2022-12-09T12:18:51.857Z,13.57
2022-12-09T12:21:47.336Z,12.98
2022-12-09T12:24:44.577Z,11.98
2022-12-09T12:27:29.973Z,12.05
2022-12-09T12:30:05.401Z,11.93
2022-12-09T12:33:53.114Z,15.77
2022-12-09T12:36:04.274Z,14.65
2022-12-09T12:38:52.787Z,13.93
2022-12-09T12:41:37.779Z,13.90
2022-12-09T12:44:48.080Z,14.80
2022-12-09T12:47:26.290Z,17.77
2022-12-09T12:50:16.971Z,15.65
2022-12-09T12:52:56.841Z,14.80
2022-12-09T12:55:46.649Z,15.93
2022-12-09T12:58:34.524Z,17.08
2022-12-09T13:01:11.158Z,17.60
2022-12-09T13:03:53.841Z,17.13
2022-12-09T13:06:33.268Z,16.63
2022-12-09T13:09:08.805Z,18.38
2022-12-09T13:11:52.280Z,19.40
2022-12-09T13:14:33.226Z,18.85
2022-12-09T13:17:04.900Z,19.73
2022-12-09T13:19:43.250Z,17.98
2022-12-09T13:22:23.551Z,18.70
2022-12-09T13:25:03.775Z,16.23
2022-12-09T13:27:41.401Z,19.20
2022-12-09T13:30:21.450Z,18.30
2022-12-09T13:33:25.519Z,17.02
2022-12-09T13:36:06.714Z,17.02
2022-12-09T13:38:39.974Z,19.10
2022-12-09T13:41:56.205Z,17.58
2022-12-09T13:44:34.236Z,20.25
2022-12-09T13:47:32.002Z,20.42
2022-12-09T13:50:06.224Z,18.52
2022-12-09T13:52:48.031Z,19.05
2022-12-09T13:55:35.167Z,18.02
2022-12-09T13:58:33.590Z,19.40
2022-12-09T14:01:15.716Z,18.92
2022-12-09T14:04:00.310Z,17.77
2022-12-09T14:06:35.374Z,16.63
2022-12-09T14:09:23.581Z,17.40
2022-12-09T14:11:55.551Z,17.55
2022-12-09T14:14:58.617Z,20.52
2022-12-09T14:18:04.870Z,19.75
2022-12-09T14:20:42.838Z,19.45
2022-12-09T14:23:21.347Z,22.98
2022-12-09T14:26:11.500Z,24.63
2022-12-09T14:29:03.170Z,20.45
2022-12-09T14:32:02.963Z,17.40
2022-12-09T14:34:39.413Z,17.33
2022-12-09T14:37:51.052Z,16.85
2022-12-09T14:40:52.297Z,17.65
2022-12-09T14:43:48.460Z,18.38
2022-12-09T14:46:30.033Z,20.75
2022-12-09T14:49:06.039Z,18.85
2022-12-09T14:51:39.756Z,19.75
2022-12-09T14:54:20.270Z,17.02
2022-12-09T14:56:54.677Z,60.77
2022-12-09T14:59:28.748Z,24.00
2022-12-09T15:02:03.174Z,20.83
2022-12-09T15:04:36.134Z,22.17
2022-12-09T15:07:12.353Z,19.23
2022-12-09T15:09:56.322Z,17.98
2022-12-09T15:12:33.269Z,18.77
2022-12-09T15:15:10.796Z,21.38
2022-12-09T15:17:46.124Z,19.67
2022-12-09T15:20:32.242Z,22.02
2022-12-09T15:23:06.905Z,20.65
2022-12-09T15:25:52.220Z,17.92
2022-12-09T15:31:21.112Z,22.35
2022-12-09T15:33:53.709Z,19.83
2022-12-09T15:36:28.729Z,22.08
2022-12-09T15:39:04.850Z,19.70
2022-12-09T15:41:54.332Z,18.67
2022-12-09T15:44:26.950Z,19.33
2022-12-09T15:47:04.319Z,18.35
2022-12-09T15:49:42.749Z,19.80
2022-12-09T15:52:15.077Z,19.60
2022-12-09T15:54:48.100Z,16.83
2022-12-09T15:57:23.429Z,18.70
2022-12-09T15:59:59.005Z,19.83
2022-12-09T16:02:33.695Z,17.88
2022-12-09T16:05:08.056Z,19.27
2022-12-09T16:07:38.808Z,17.63
2022-12-09T16:10:14.877Z,18.02
2022-12-09T16:12:48.024Z,22.90
2022-12-09T16:15:53.686Z,18.15
2022-12-09T16:18:28.253Z,18.20
2022-12-09T16:21:10.737Z,20.80
2022-12-09T16:23:41.108Z,22.77
2022-12-09T16:26:20.619Z,21.83
2022-12-09T16:29:02.189Z,21.42
2022-12-09T16:31:33.116Z,23.33
2022-12-09T16:34:03.766Z,21.45
2022-12-09T16:36:35.374Z,19.33
2022-12-09T16:39:38.247Z,22.25
2022-12-09T16:42:25.273Z,20.13
2022-12-09T16:45:27.081Z,22.25
2022-12-09T16:47:58.189Z,22.90
2022-12-09T16:50:34.864Z,21.30
2022-12-09T16:53:07.923Z,28.70
2022-12-09T16:55:38.307Z,22.08
2022-12-09T16:58:08.769Z,24.83
2022-12-09T17:00:41.790Z,25.85
2022-12-09T17:03:21.660Z,26.38
2022-12-09T17:05:52.005Z,26.10
2022-12-09T17:08:22.501Z,25.37
2022-12-09T17:10:52.911Z,25.92
2022-12-09T17:13:23.365Z,24.33
2022-12-09T17:15:58.643Z,26.30
2022-12-09T17:18:29.715Z,22.90
2022-12-09T17:21:04.138Z,28.98
2022-12-09T17:23:39.704Z,25.50
2022-12-09T17:26:13.272Z,28.03
2022-12-09T17:28:44.681Z,28.75
2022-12-09T17:31:22.459Z,29.03
2022-12-09T17:33:53.935Z,28.38
2022-12-09T17:36:24.249Z,26.00
2022-12-09T17:38:54.685Z,28.03
2022-12-09T17:41:25.134Z,28.17
2022-12-09T17:43:57.856Z,29.02
2022-12-09T17:46:31.136Z,54.50
2022-12-09T17:50:25.374Z,31.80
2022-12-09T17:52:55.774Z,31.83
2022-12-09T17:55:26.242Z,35.50
2022-12-09T17:57:56.649Z,30.48
2022-12-09T18:00:27.184Z,28.80
2022-12-09T18:03:00.146Z,32.78
2022-12-09T18:05:30.364Z,29.00
2022-12-09T18:08:00.774Z,30.35
2022-12-09T18:10:37.116Z,35.93
2022-12-09T18:13:08.811Z,35.03
2022-12-09T18:15:40.272Z,32.50
2022-12-09T18:18:13.230Z,29.77
2022-12-09T18:20:43.561Z,32.20
2022-12-09T18:23:14.725Z,30.67
2022-12-09T18:25:46.227Z,34.33
2022-12-09T18:28:16.584Z,32.00
2022-12-09T18:30:47.232Z,33.75
2022-12-09T18:33:20.494Z,32.38
2022-12-09T18:35:50.990Z,34.27
2022-12-09T18:38:24.260Z,33.65
2022-12-09T18:41:06.559Z,34.33
2022-12-09T18:43:41.189Z,35.80
2022-12-09T18:46:14.122Z,37.60
2022-12-09T18:48:47.403Z,37.78
2022-12-09T18:51:19.815Z,36.97
2022-12-09T18:53:51.134Z,35.80
2022-12-09T18:59:08.735Z,35.92
2022-12-09T19:01:42.309Z,34.60
2022-12-09T19:04:19.774Z,35.53
2022-12-09T19:06:52.488Z,36.13
2022-12-09T19:09:25.108Z,35.85
2022-12-09T19:11:56.980Z,38.50
2022-12-09T19:14:27.975Z,40.80
2022-12-09T19:16:58.540Z,66.85
2022-12-09T19:19:31.909Z,39.92
2022-12-09T19:22:03.731Z,39.38
2022-12-09T19:24:41.347Z,38.47
2022-12-09T19:27:13.532Z,35.50
2022-12-09T19:29:44.018Z,35.90
2022-12-09T19:32:51.040Z,34.35
2022-12-09T19:35:09.012Z,37.10
2022-12-09T19:37:39.296Z,35.30
2022-12-09T19:40:12.765Z,36.47
2022-12-09T19:42:43.023Z,35.67
2022-12-09T19:45:14.790Z,34.67
2022-12-09T19:47:45.161Z,35.22
2022-12-09T19:50:18.172Z,37.87
2022-12-09T19:52:48.586Z,36.55
2022-12-09T19:55:19.078Z,33.60
2022-12-09T19:57:49.461Z,33.08
2022-12-09T20:00:20.571Z,35.57
2022-12-09T20:02:51.572Z,38.55
2022-12-09T20:05:24.748Z,36.63
2022-12-09T20:07:55.075Z,36.05
2022-12-09T20:10:25.395Z,33.57
2022-12-09T20:12:55.859Z,33.37
2022-12-09T20:15:26.186Z,36.97
2022-12-09T20:17:57.049Z,33.97
2022-12-09T20:20:30.023Z,38.67
2022-12-09T20:23:00.548Z,35.17
2022-12-09T20:25:31.110Z,38.47
2022-12-09T20:28:01.487Z,35.90
2022-12-09T20:30:32.967Z,34.20
2022-12-09T20:33:03.244Z,34.00
2022-12-09T20:35:39.001Z,32.27
2022-12-09T20:38:09.271Z,32.28
2022-12-09T20:40:40.920Z,32.88
2022-12-09T20:43:11.414Z,36.80
2022-12-09T20:45:42.031Z,35.80
2022-12-09T20:48:13.143Z,38.78
2022-12-09T20:50:46.131Z,35.53
2022-12-09T20:53:16.433Z,34.70
2022-12-09T20:55:46.744Z,36.40
2022-12-09T20:58:17.063Z,38.47
2022-12-09T21:00:47.389Z,35.23
2022-12-09T21:03:17.911Z,34.40
2022-12-09T21:05:50.989Z,33.25
2022-12-09T21:08:21.357Z,35.83
2022-12-09T21:10:51.918Z,36.05
2022-12-09T21:13:22.493Z,30.63
2022-12-09T21:15:53.023Z,33.65
2022-12-09T21:18:23.491Z,35.95
2022-12-09T21:20:59.068Z,32.80
2022-12-09T21:23:34.115Z,31.75
2022-12-09T21:26:08.395Z,31.00
2022-12-09T21:28:40.128Z,35.33
2022-12-09T21:31:12.137Z,30.17
2022-12-09T21:33:43.872Z,34.03
2022-12-09T21:36:18.957Z,31.02
2022-12-09T21:38:49.305Z,29.25
2022-12-09T21:41:22.639Z,27.07
2022-12-09T21:43:55.119Z,29.42
2022-12-09T21:46:27.782Z,29.52
2022-12-09T21:49:03.555Z,28.05
2022-12-09T21:51:38.047Z,27.57
2022-12-09T21:54:09.096Z,28.52
2022-12-09T21:56:39.654Z,25.60
2022-12-09T21:59:11.047Z,26.65
2022-12-09T22:01:44.281Z,29.25
2022-12-09T22:04:18.044Z,26.52
2022-12-09T22:06:53.391Z,27.17
2022-12-09T22:09:24.753Z,27.63
2022-12-09T22:11:55.053Z,32.20
2022-12-09T22:14:25.462Z,29.37
2022-12-09T22:16:55.774Z,25.60
2022-12-09T22:19:27.592Z,27.17
2022-12-09T22:22:04.588Z,28.73
2022-12-09T22:24:37.790Z,26.10
2022-12-09T22:27:08.218Z,28.13
2022-12-09T22:29:38.628Z,28.23
2022-12-09T22:32:09.208Z,26.45
2022-12-09T22:34:39.971Z,30.55
2022-12-09T22:37:41.862Z,28.00
2022-12-09T22:40:03.453Z,28.88
2022-12-09T22:42:33.795Z,28.13
2022-12-09T22:45:04.164Z,29.70
2022-12-09T22:47:34.578Z,30.23
2022-12-09T22:50:05.001Z,27.83
2022-12-09T22:52:37.954Z,32.30
2022-12-09T22:55:09.654Z,30.83
2022-12-09T22:57:39.945Z,28.83
2022-12-09T23:00:13.280Z,29.23
2022-12-09T23:02:44.189Z,30.13
2022-12-09T23:05:14.706Z,32.53
2022-12-09T23:07:47.667Z,30.13
2022-12-09T23:10:18.159Z,28.15
2022-12-09T23:12:48.452Z,26.47
2022-12-09T23:15:19.005Z,32.03
2022-12-09T23:17:49.308Z,30.17
2022-12-09T23:20:19.915Z,28.17
2022-12-09T23:22:52.871Z,29.77
2022-12-09T23:25:23.384Z,30.58
2022-12-09T23:27:53.828Z,30.10
2022-12-09T23:30:24.223Z,29.63
2022-12-09T23:32:54.492Z,35.27
2022-12-09T23:35:24.797Z,27.33
2022-12-09T23:37:57.677Z,30.30
2022-12-09T23:40:27.918Z,29.45
2022-12-09T23:42:58.234Z,30.40
2022-12-09T23:45:28.575Z,32.23
2022-12-09T23:47:58.885Z,29.33
2022-12-09T23:50:29.224Z,28.93
2022-12-09T23:53:02.097Z,34.03
2022-12-09T23:55:32.998Z,32.55
2022-12-09T23:58:03.421Z,28.83
